This is the latest recevied weather packets stored in our database for station/object KI5NXU. If no packets are shown the sender has not sent any weather packets the latest 1 day(s).
| Time | Temp. | Humidity | Pressure | Rain* | Wind** | Luminosity | Snow |
|---|---|---|---|---|---|---|---|
| 1836274622 | 27.22° C | 67% | 1015.6 hPa | 0 mm | 2.68 m/s, 147° | 0 W/m² | - |
| 1836274475 | 27.22° C | 68% | 1015.8 hPa | 0 mm | 1.79 m/s, 161° | 0 W/m² | - |
| 1836274320 | 27.22° C | 67% | 1015.7 hPa | 0 mm | 1.79 m/s, 162° | 0 W/m² | - |
| 1836274173 | 27.22° C | 68% | 1015.9 hPa | 0 mm | 1.79 m/s, 158° | 0 W/m² | - |
| 1836274019 | 27.22° C | 67% | 1015.6 hPa | 0 mm | 1.79 m/s, 160° | 0 W/m² | - |
| 1778047344 | 12.78° C | 85% | 1009.3 hPa | 0 mm | 0 m/s | 0 W/m² | - |
| 1778047041 | 12.78° C | 85% | 1009.4 hPa | 0 mm | 0.89 m/s, 74° | 0 W/m² | - |
| 1778046738 | 12.78° C | 84% | 1009.5 hPa | 0 mm | 0.45 m/s, 62° | 0 W/m² | - |
| 1778046435 | 12.78° C | 84% | 1009.4 hPa | 0 mm | 1.34 m/s, 62° | 0 W/m² | - |
| 1778046131 | 12.78° C | 84% | 1009.4 hPa | 0 mm | 0.89 m/s, 86° | 0 W/m² | - |
| 1778045829 | 13.33° C | 83% | 1009.3 hPa | 0 mm | 1.34 m/s, 50° | 0 W/m² | - |
| 1778045527 | 13.33° C | 83% | 1009.4 hPa | 0 mm | 2.24 m/s, 80° | 0 W/m² | - |
| 1778045225 | 13.33° C | 83% | 1009.6 hPa | 0 mm | 1.34 m/s, 110° | 0 W/m² | - |
| 1778044923 | 13.33° C | 83% | 1009.6 hPa | 0 mm | 0.89 m/s, 79° | 0 W/m² | - |
| 1778044620 | 13.33° C | 82% | 1009.8 hPa | 0 mm | 0 m/s | 0 W/m² | - |
| 1778044316 | 13.33° C | 82% | 1009.6 hPa | 0 mm | 0 m/s | 0 W/m² | - |
| 1778044015 | 13.33° C | 81% | 1009.5 hPa | 0 mm | 1.79 m/s, 49° | 0 W/m² | - |
| 1778043711 | 13.89° C | 81% | 1009.9 hPa | 0 mm | 1.34 m/s, 69° | 0 W/m² | - |
| 1778043408 | 13.89° C | 82% | 1009.6 hPa | 0 mm | 0.45 m/s, 75° | 0 W/m² | - |
| 1778043104 | 13.89° C | 81% | 1010.2 hPa | 0 mm | 1.79 m/s, 45° | 0 W/m² | - |
| 1778042802 | 13.89° C | 82% | 1010.3 hPa | 0 mm | 1.34 m/s, 32° | 0 W/m² | - |
| 1778042499 | 13.89° C | 82% | 1010.1 hPa | 0 mm | 0.45 m/s, 80° | 0 W/m² | - |
| 1778042196 | 13.89° C | 82% | 1010.2 hPa | 0 mm | 0.45 m/s, 87° | 0 W/m² | - |
| 1778041894 | 13.89° C | 82% | 1010.1 hPa | 0 mm | 0.89 m/s, 57° | 0 W/m² | - |
| 1778041593 | 13.89° C | 82% | 1010.1 hPa | 0 mm | 0.45 m/s, 25° | 0 W/m² | - |
* Rain latest hour (hover to see other rain measurements)
** Current wind speed in m/s (hover to see current wind gust speed)